createdAt,value
2018-04-08T00:01:18.208Z,95545.25
2018-04-08T00:03:44.541Z,95546.08
2018-04-08T00:06:10.888Z,95537.92
2018-04-08T00:08:37.273Z,95540.76
2018-04-08T00:11:03.598Z,95543.10
2018-04-08T00:13:29.967Z,95548.01
2018-04-08T00:15:56.344Z,95548.95
2018-04-08T00:18:22.711Z,95543.67
2018-04-08T00:20:49.199Z,95549.94
2018-04-08T00:23:15.642Z,95546.20
2018-04-08T00:25:41.969Z,95554.86
2018-04-08T00:28:08.285Z,95544.61
2018-04-08T00:30:34.609Z,95560.14
2018-04-08T00:33:00.947Z,95565.81
2018-04-08T00:35:27.269Z,95560.62
2018-04-08T00:37:53.692Z,95555.61
2018-04-08T00:40:20.047Z,95558.81
2018-04-08T00:42:46.462Z,95564.07
2018-04-08T00:45:12.850Z,95559.23
2018-04-08T00:47:39.262Z,95561.57
2018-04-08T00:50:05.631Z,95560.56
2018-04-08T00:52:32.057Z,95560.33
2018-04-08T00:54:58.389Z,95559.46
2018-04-08T00:57:24.734Z,95560.30
2018-04-08T00:59:51.059Z,95563.05
2018-04-08T01:02:17.383Z,95564.75
2018-04-08T01:04:43.755Z,95557.50
2018-04-08T01:07:10.105Z,95558.81
2018-04-08T01:09:36.513Z,95566.19
2018-04-08T01:12:02.907Z,95561.36
2018-04-08T01:14:29.245Z,95569.41
2018-04-08T01:16:55.688Z,95561.24
2018-04-08T01:19:22.010Z,95559.65
2018-04-08T01:21:48.338Z,95566.56
2018-04-08T01:24:14.702Z,95554.40
2018-04-08T01:29:13.578Z,95548.63
2018-04-08T01:31:40.074Z,95537.44
2018-04-08T01:34:06.517Z,95543.38
2018-04-08T01:36:32.963Z,95550.97
2018-04-08T01:38:59.312Z,95544.43
2018-04-08T01:41:25.675Z,95544.70
2018-04-08T01:43:52.000Z,95541.00
2018-04-08T01:46:18.331Z,95540.20
2018-04-08T01:48:44.816Z,95542.28
2018-04-08T01:51:11.218Z,95548.41
2018-04-08T01:53:37.729Z,95547.34
2018-04-08T01:56:04.073Z,95545.83
2018-04-08T01:58:30.391Z,95548.02
2018-04-08T02:00:56.783Z,95544.20
2018-04-08T02:03:23.296Z,95535.90
2018-04-08T02:05:49.650Z,95542.59
2018-04-08T02:08:16.008Z,95539.26
2018-04-08T02:10:42.374Z,95526.80
2018-04-08T02:13:08.744Z,95539.11
2018-04-08T02:15:35.116Z,95533.06
2018-04-08T02:18:01.445Z,95536.27
2018-04-08T02:20:27.792Z,95538.55
2018-04-08T02:22:54.302Z,95536.27
2018-04-08T02:25:20.788Z,95539.38
2018-04-08T02:27:47.115Z,95539.15
2018-04-08T02:30:13.446Z,95531.09
2018-04-08T02:32:39.785Z,95532.34
2018-04-08T02:35:06.186Z,95526.69
2018-04-08T02:37:32.662Z,95528.50
2018-04-08T02:39:59.217Z,95530.28
2018-04-08T02:42:25.547Z,95533.55
2018-04-08T02:44:51.887Z,95529.86
2018-04-08T02:47:18.209Z,95527.66
2018-04-08T02:49:44.586Z,95523.89
2018-04-08T02:52:11.019Z,95524.98
2018-04-08T02:54:37.452Z,95522.42
2018-04-08T02:57:03.964Z,95530.88
2018-04-08T02:59:30.297Z,95534.92
2018-04-08T03:01:56.675Z,95535.45
2018-04-08T03:04:23.188Z,95526.13
2018-04-08T03:06:49.526Z,95526.73
2018-04-08T03:09:15.892Z,95527.94
2018-04-08T03:11:42.346Z,95525.14
2018-04-08T03:14:08.710Z,95529.11
2018-04-08T03:16:35.159Z,95536.81
2018-04-08T03:19:01.539Z,95531.03
2018-04-08T03:21:27.948Z,95541.76
2018-04-08T03:23:54.485Z,95540.52
2018-04-08T03:26:20.993Z,95537.56
2018-04-08T03:28:47.320Z,95536.16
2018-04-08T03:31:13.654Z,95545.38
2018-04-08T03:33:40.025Z,95542.40
2018-04-08T03:36:06.394Z,95543.95
2018-04-08T03:38:32.922Z,95542.70
2018-04-08T03:40:59.448Z,95543.64
2018-04-08T03:43:25.795Z,95539.56
2018-04-08T03:45:52.340Z,95527.33
2018-04-08T03:48:18.848Z,95540.16
2018-04-08T03:50:45.224Z,95539.06
2018-04-08T03:53:11.580Z,95536.88
2018-04-08T03:55:38.046Z,95547.23
2018-04-08T03:58:04.393Z,95542.17
2018-04-08T04:00:30.810Z,95543.95
2018-04-08T04:02:57.646Z,95550.44
2018-04-08T04:05:24.023Z,95546.24
2018-04-08T04:07:50.483Z,95552.13
2018-04-08T04:10:17.031Z,95552.48
2018-04-08T04:12:43.369Z,95557.61
2018-04-08T04:15:09.701Z,95559.95
2018-04-08T04:17:36.253Z,95557.84
2018-04-08T04:20:02.590Z,95560.60
2018-04-08T04:22:28.946Z,95556.29
2018-04-08T04:24:55.311Z,95557.98
2018-04-08T04:27:21.638Z,95552.44
2018-04-08T04:29:48.078Z,95561.28
2018-04-08T04:32:14.459Z,95564.49
2018-04-08T04:34:40.802Z,95562.03
2018-04-08T04:37:07.313Z,95568.68
2018-04-08T04:39:33.640Z,95555.73
2018-04-08T04:41:59.960Z,95556.78
2018-04-08T04:44:26.309Z,95563.58
2018-04-08T04:46:52.668Z,95562.75
2018-04-08T04:49:19.002Z,95569.69
2018-04-08T04:51:45.328Z,95564.97
2018-04-08T04:54:11.722Z,95562.16
2018-04-08T04:56:38.041Z,95563.66
2018-04-08T04:59:04.414Z,95573.25
2018-04-08T05:01:30.809Z,95570.19
2018-04-08T05:03:57.225Z,95571.62
2018-04-08T05:06:23.760Z,95570.97
2018-04-08T05:08:50.084Z,95576.44
2018-04-08T05:11:16.457Z,95577.68
2018-04-08T05:13:42.905Z,95577.73
2018-04-08T05:16:09.290Z,95584.30
2018-04-08T05:18:35.636Z,95586.10
2018-04-08T05:21:01.987Z,95576.08
2018-04-08T05:23:28.354Z,95578.19
2018-04-08T05:25:54.705Z,95580.67
2018-04-08T05:28:21.332Z,95579.27
2018-04-08T05:30:47.652Z,95582.85
2018-04-08T05:33:14.073Z,95581.52
2018-04-08T05:35:40.596Z,95577.39
2018-04-08T05:38:07.097Z,95580.71
2018-04-08T05:40:33.435Z,95587.77
2018-04-08T05:42:59.745Z,95589.36
2018-04-08T05:45:26.074Z,95581.44
2018-04-08T05:47:52.406Z,95587.05
2018-04-08T05:50:18.861Z,95588.71
2018-04-08T05:52:45.295Z,95592.21
2018-04-08T05:55:11.617Z,95588.36
2018-04-08T05:57:37.998Z,95595.28
2018-04-08T06:00:04.423Z,95589.81
2018-04-08T06:02:30.741Z,95585.25
2018-04-08T06:04:57.123Z,95590.60
2018-04-08T06:07:23.737Z,95595.39
2018-04-08T06:09:50.074Z,95595.97
2018-04-08T06:12:16.411Z,95603.91
2018-04-08T06:14:42.818Z,95598.71
2018-04-08T06:17:09.177Z,95602.70
2018-04-08T06:19:35.567Z,95603.78
2018-04-08T06:22:01.931Z,95600.66
2018-04-08T06:24:28.284Z,95605.14
2018-04-08T06:26:54.649Z,95607.10
2018-04-08T06:29:20.962Z,95613.33
2018-04-08T06:31:47.340Z,95611.02
2018-04-08T06:34:13.668Z,95600.67
2018-04-08T06:36:40.227Z,95599.26
2018-04-08T06:39:06.787Z,95607.11
2018-04-08T06:41:33.117Z,95600.12
2018-04-08T06:43:59.441Z,95608.06
2018-04-08T06:46:25.773Z,95610.09
2018-04-08T06:48:52.204Z,95607.05
2018-04-08T06:51:18.539Z,95598.96
2018-04-08T06:53:45.048Z,95609.67
2018-04-08T06:56:11.424Z,95610.05
2018-04-08T06:58:37.785Z,95604.36
2018-04-08T07:01:04.143Z,95608.47
2018-04-08T07:03:30.466Z,95610.42
2018-04-08T07:05:56.795Z,95598.49
2018-04-08T07:08:23.515Z,95603.44
2018-04-08T07:10:49.852Z,95615.53
2018-04-08T07:13:16.185Z,95606.42
2018-04-08T07:15:42.706Z,95611.11
2018-04-08T07:18:09.057Z,95608.28
2018-04-08T07:20:35.400Z,95606.41
2018-04-08T07:23:01.788Z,95606.78
2018-04-08T07:25:28.222Z,95608.41
2018-04-08T07:27:54.554Z,95607.95
2018-04-08T07:30:20.898Z,95609.06
2018-04-08T07:32:47.322Z,95595.52
2018-04-08T07:35:13.705Z,95588.54
2018-04-08T07:37:40.037Z,95608.05
2018-04-08T07:40:06.409Z,95610.52
2018-04-08T07:42:32.794Z,95600.62
2018-04-08T07:44:59.128Z,95609.47
2018-04-08T07:47:25.438Z,95601.49
2018-04-08T07:49:51.862Z,95601.27
2018-04-08T07:52:18.220Z,95598.59
2018-04-08T07:54:44.550Z,95585.38
2018-04-08T07:57:10.908Z,95594.09
2018-04-08T07:59:37.361Z,95598.67
2018-04-08T08:02:03.778Z,95599.18
2018-04-08T08:04:30.090Z,95594.44
2018-04-08T08:06:56.458Z,95587.07
2018-04-08T08:09:22.798Z,95586.70
2018-04-08T08:11:49.147Z,95583.71
2018-04-08T08:14:15.492Z,95584.12
2018-04-08T08:16:41.810Z,95581.09
2018-04-08T08:19:08.204Z,95576.61
2018-04-08T08:21:34.559Z,95582.42
2018-04-08T08:24:00.882Z,95579.38
2018-04-08T08:26:27.225Z,95584.08
2018-04-08T08:28:53.573Z,95580.02
2018-04-08T08:31:19.893Z,95582.01
2018-04-08T08:33:46.254Z,95576.34
2018-04-08T08:36:12.626Z,95578.47
2018-04-08T08:38:39.006Z,95572.48
2018-04-08T08:41:05.354Z,95569.91
2018-04-08T08:43:31.721Z,95569.12
2018-04-08T08:45:58.132Z,95560.52
2018-04-08T08:48:24.450Z,95562.34
2018-04-08T08:50:50.873Z,95552.78
2018-04-08T08:53:17.227Z,95552.53
2018-04-08T08:55:43.640Z,95555.84
2018-04-08T08:58:09.968Z,95547.70
2018-04-08T09:00:36.451Z,95545.22
2018-04-08T09:03:02.898Z,95545.17
2018-04-08T09:05:29.313Z,95544.30
2018-04-08T09:07:55.625Z,95538.48
2018-04-08T09:10:21.983Z,95533.33
2018-04-08T09:12:48.297Z,95532.59
2018-04-08T09:15:14.663Z,95529.88
2018-04-08T09:17:41.032Z,95526.05
2018-04-08T09:20:07.394Z,95536.78
2018-04-08T09:22:33.715Z,95529.14
2018-04-08T09:25:00.071Z,95526.87
2018-04-08T09:27:26.382Z,95526.05
2018-04-08T09:29:52.709Z,95523.84
2018-04-08T09:32:19.082Z,95519.24
2018-04-08T09:34:45.469Z,95520.03
2018-04-08T09:37:11.855Z,95513.13
2018-04-08T09:39:38.238Z,95510.73
2018-04-08T09:42:04.597Z,95504.61
2018-04-08T09:44:30.965Z,95504.75
2018-04-08T09:46:57.334Z,95498.44
2018-04-08T09:49:23.710Z,95495.11
2018-04-08T09:51:50.135Z,95496.41
2018-04-08T09:54:16.638Z,95490.70
2018-04-08T09:56:43.042Z,95483.73
2018-04-08T09:59:09.418Z,95489.91
2018-04-08T10:01:35.892Z,95483.98
2018-04-08T10:04:02.310Z,95476.42
2018-04-08T10:06:28.693Z,95473.94
2018-04-08T10:08:55.074Z,95482.64
2018-04-08T10:11:21.495Z,95478.31
2018-04-08T10:13:47.849Z,95474.83
2018-04-08T10:16:14.175Z,95477.03
2018-04-08T10:18:40.583Z,95471.97
2018-04-08T10:21:07.013Z,95469.84
2018-04-08T10:23:33.357Z,95461.38
2018-04-08T10:28:32.126Z,95465.43
2018-04-08T10:30:58.457Z,95455.67
2018-04-08T10:33:24.821Z,95459.54
2018-04-08T10:35:51.267Z,95456.91
2018-04-08T10:38:17.623Z,95454.22
2018-04-08T10:40:44.014Z,95443.91
2018-04-08T10:43:10.361Z,95446.56
2018-04-08T10:45:36.697Z,95432.61
2018-04-08T10:48:03.186Z,95430.59
2018-04-08T10:50:29.501Z,95427.04
2018-04-08T10:52:55.809Z,95431.29
2018-04-08T10:55:22.184Z,95427.09
2018-04-08T10:57:48.494Z,95431.09
2018-04-08T11:00:14.846Z,95428.30
2018-04-08T11:02:41.209Z,95423.41
2018-04-08T11:05:07.685Z,95415.86
2018-04-08T11:07:34.013Z,95425.18
2018-04-08T11:10:00.414Z,95426.64
2018-04-08T11:12:26.738Z,95417.75
2018-04-08T11:14:53.234Z,95416.16
2018-04-08T11:17:19.600Z,95409.38
2018-04-08T11:19:45.974Z,95404.23
2018-04-08T11:22:12.301Z,95394.80
2018-04-08T11:24:38.626Z,95397.37
2018-04-08T11:27:04.962Z,95394.70
2018-04-08T11:29:31.341Z,95395.98
2018-04-08T11:31:57.693Z,95383.88
2018-04-08T11:34:24.070Z,95397.18
2018-04-08T11:36:50.404Z,95382.31
2018-04-08T11:39:16.785Z,95382.31
2018-04-08T11:41:43.174Z,95385.17
2018-04-08T11:44:09.522Z,95388.11
2018-04-08T11:46:35.898Z,95387.16
2018-04-08T11:49:02.320Z,95389.22
2018-04-08T11:51:28.782Z,95370.77
2018-04-08T11:53:55.117Z,95377.72
2018-04-08T11:56:21.529Z,95370.06
2018-04-08T11:58:47.906Z,95368.70
2018-04-08T12:01:14.246Z,95360.46
2018-04-08T12:03:40.668Z,95364.69
2018-04-08T12:06:07.030Z,95358.58
2018-04-08T12:08:33.438Z,95348.73
2018-04-08T12:10:59.814Z,95357.75
2018-04-08T12:13:26.147Z,95352.03
2018-04-08T12:15:52.515Z,95355.44
2018-04-08T12:18:18.961Z,95350.33
2018-04-08T12:20:45.360Z,95345.59
2018-04-08T12:23:11.714Z,95346.23
2018-04-08T12:25:38.198Z,95345.41
2018-04-08T12:28:04.527Z,95345.73
2018-04-08T12:30:30.883Z,95337.99
2018-04-08T12:32:57.267Z,95335.33
2018-04-08T12:35:23.605Z,95329.30
2018-04-08T12:37:49.963Z,95338.23
2018-04-08T12:40:16.306Z,95327.97
2018-04-08T12:42:42.672Z,95323.33
2018-04-08T12:45:09.003Z,95322.34
2018-04-08T12:47:35.382Z,95321.47
2018-04-08T12:50:01.718Z,95311.26
2018-04-08T12:52:28.119Z,95317.84
2018-04-08T12:54:54.465Z,95317.42
2018-04-08T12:57:20.796Z,95311.39
2018-04-08T12:59:47.153Z,95310.10
2018-04-08T13:02:13.530Z,95301.91
2018-04-08T13:04:39.922Z,95304.77
2018-04-08T13:07:06.235Z,95303.42
2018-04-08T13:09:32.681Z,95298.50
2018-04-08T13:11:59.050Z,95305.27
2018-04-08T13:14:25.401Z,95303.48
2018-04-08T13:16:51.868Z,95302.38
2018-04-08T13:19:18.270Z,95299.28
2018-04-08T13:21:44.598Z,95303.61
2018-04-08T13:24:11.014Z,95296.94
2018-04-08T13:26:37.502Z,95298.64
2018-04-08T13:29:03.876Z,95280.17
2018-04-08T13:31:30.198Z,95294.30
2018-04-08T13:33:56.518Z,95294.30
2018-04-08T13:36:22.888Z,95289.89
2018-04-08T13:38:49.258Z,95291.59
2018-04-08T13:41:15.587Z,95295.83
2018-04-08T13:43:41.928Z,95295.36
2018-04-08T13:46:08.401Z,95292.33
2018-04-08T13:48:34.714Z,95280.17
2018-04-08T13:51:01.086Z,95291.03
2018-04-08T13:53:27.423Z,95292.23
2018-04-08T13:55:53.790Z,95284.05
2018-04-08T13:58:20.109Z,95284.69
2018-04-08T14:00:46.483Z,95290.20
2018-04-08T14:03:12.807Z,95285.75
2018-04-08T14:05:39.116Z,95283.99
2018-04-08T14:08:05.507Z,95284.05
2018-04-08T14:10:31.837Z,95290.48
2018-04-08T14:12:58.254Z,95286.16
2018-04-08T14:15:24.610Z,95286.11
2018-04-08T14:17:51.021Z,95280.82
2018-04-08T14:20:17.428Z,95282.06
2018-04-08T14:22:43.778Z,95279.25
2018-04-08T14:25:10.114Z,95273.68
2018-04-08T14:27:36.472Z,95276.59
2018-04-08T14:30:02.877Z,95278.61
2018-04-08T14:32:29.276Z,95268.80
2018-04-08T14:34:55.635Z,95271.56
2018-04-08T14:37:21.965Z,95274.48
2018-04-08T14:39:48.294Z,95270.23
2018-04-08T14:42:14.621Z,95280.82
2018-04-08T14:44:40.940Z,95278.84
2018-04-08T14:47:07.364Z,95276.54
2018-04-08T14:49:33.815Z,95275.84
2018-04-08T14:52:00.187Z,95281.70
2018-04-08T14:54:26.518Z,95269.86
2018-04-08T14:56:52.957Z,95264.53
2018-04-08T14:59:19.286Z,95274.66
2018-04-08T15:01:46.798Z,95275.66
2018-04-08T15:04:11.969Z,95280.54
2018-04-08T15:06:38.306Z,95267.98
2018-04-08T15:09:04.662Z,95271.52
2018-04-08T15:11:30.994Z,95279.81
2018-04-08T15:13:57.309Z,95286.11
2018-04-08T15:16:23.665Z,95282.94
2018-04-08T15:18:49.999Z,95279.81
2018-04-08T15:21:16.395Z,95278.70
2018-04-08T15:23:42.788Z,95285.09
2018-04-08T15:26:09.113Z,95282.16
2018-04-08T15:28:35.435Z,95283.03
2018-04-08T15:31:01.752Z,95286.03
2018-04-08T15:33:28.214Z,95286.91
2018-04-08T15:35:54.533Z,95275.81
2018-04-08T15:38:20.919Z,95285.02
2018-04-08T15:40:47.243Z,95278.19
2018-04-08T15:43:13.593Z,95285.80
2018-04-08T15:45:39.974Z,95283.68
2018-04-08T15:48:06.311Z,95288.97
2018-04-08T15:50:32.800Z,95288.19
2018-04-08T15:52:59.197Z,95287.41
2018-04-08T15:55:25.580Z,95296.11
2018-04-08T15:57:51.985Z,95291.55
2018-04-08T16:00:18.304Z,95298.04
2018-04-08T16:02:44.694Z,95291.18
2018-04-08T16:05:10.978Z,95290.12
2018-04-08T16:07:37.423Z,95294.50
2018-04-08T16:10:03.735Z,95295.88
2018-04-08T16:12:30.105Z,95295.56
2018-04-08T16:14:56.414Z,95300.35
2018-04-08T16:17:22.928Z,95289.94
2018-04-08T16:19:49.245Z,95297.59
2018-04-08T16:22:15.649Z,95294.96
2018-04-08T16:24:42.001Z,95296.66
2018-04-08T16:27:08.465Z,95301.17
2018-04-08T16:29:34.799Z,95303.70
2018-04-08T16:32:01.177Z,95302.88
2018-04-08T16:34:27.493Z,95308.72
2018-04-08T16:36:53.866Z,95304.91
2018-04-08T16:39:20.177Z,95314.16
2018-04-08T16:41:46.505Z,95308.04
2018-04-08T16:44:12.843Z,95311.66
2018-04-08T16:46:39.160Z,95315.36
2018-04-08T16:49:05.535Z,95314.48
2018-04-08T16:51:31.866Z,95306.16
2018-04-08T16:53:58.309Z,95312.41
2018-04-08T16:56:24.660Z,95314.11
2018-04-08T16:58:51.075Z,95311.22
2018-04-08T17:01:17.458Z,95304.59
2018-04-08T17:03:43.946Z,95299.89
2018-04-08T17:06:10.285Z,95312.45
2018-04-08T17:08:36.732Z,95314.52
2018-04-08T17:11:03.155Z,95313.42
2018-04-08T17:13:29.470Z,95313.96
2018-04-08T17:15:55.795Z,95321.05
2018-04-08T17:18:22.178Z,95320.36
2018-04-08T17:20:48.511Z,95310.95
2018-04-08T17:23:14.855Z,95327.94
2018-04-08T17:25:41.181Z,95324.59
2018-04-08T17:28:07.577Z,95329.69
2018-04-08T17:30:33.973Z,95327.22
2018-04-08T17:33:00.466Z,95329.31
2018-04-08T17:35:26.901Z,95334.75
2018-04-08T17:37:53.303Z,95339.03
2018-04-08T17:40:19.683Z,95341.19
2018-04-08T17:42:46.009Z,95342.24
2018-04-08T17:45:12.331Z,95350.84
2018-04-08T17:47:38.742Z,95352.03
2018-04-08T17:50:05.172Z,95354.42
2018-04-08T17:52:31.504Z,95354.88
2018-04-08T17:54:57.847Z,95359.48
2018-04-08T17:57:24.173Z,95368.35
2018-04-08T17:59:50.509Z,95369.18
2018-04-08T18:02:16.863Z,95374.57
2018-04-08T18:04:43.201Z,95376.30
2018-04-08T18:07:09.609Z,95389.22
2018-04-08T18:09:35.929Z,95393.50
2018-04-08T18:12:02.328Z,95393.13
2018-04-08T18:14:28.741Z,95390.32
2018-04-08T18:16:55.063Z,95384.44
2018-04-08T18:19:21.519Z,95392.66
2018-04-08T18:21:47.874Z,95391.00
2018-04-08T18:24:14.235Z,95396.56
2018-04-08T18:26:40.660Z,95391.36
2018-04-08T18:29:07.044Z,95385.05
2018-04-08T18:31:33.415Z,95400.94
2018-04-08T18:33:59.747Z,95402.39
2018-04-08T18:36:26.112Z,95396.63
2018-04-08T18:38:52.559Z,95396.59
2018-04-08T18:41:18.920Z,95397.33
2018-04-08T18:43:45.250Z,95400.20
2018-04-08T18:46:11.613Z,95406.15
2018-04-08T18:48:37.997Z,95407.15
2018-04-08T18:51:04.333Z,95408.48
2018-04-08T18:53:30.707Z,95407.66
2018-04-08T18:55:57.025Z,95403.38
2018-04-08T18:58:23.422Z,95398.11
2018-04-08T19:00:49.787Z,95401.84
2018-04-08T19:03:16.149Z,95400.61
2018-04-08T19:05:42.517Z,95400.69
2018-04-08T19:08:08.851Z,95403.58
2018-04-08T19:10:35.165Z,95406.08
2018-04-08T19:13:01.489Z,95404.94
2018-04-08T19:15:27.871Z,95409.66
2018-04-08T19:17:54.330Z,95403.31
2018-04-08T19:20:20.654Z,95402.20
2018-04-08T19:22:47.008Z,95405.89
2018-04-08T19:25:13.362Z,95391.59
2018-04-08T19:27:39.706Z,95398.92
2018-04-08T19:30:06.090Z,95398.72
2018-04-08T19:32:32.478Z,95400.54
2018-04-08T19:34:58.824Z,95402.41
2018-04-08T19:37:25.176Z,95400.47
2018-04-08T19:39:51.542Z,95404.48
2018-04-08T19:42:18.038Z,95406.59
2018-04-08T19:44:44.364Z,95407.31
2018-04-08T19:47:10.838Z,95393.05
2018-04-08T19:49:37.314Z,95402.02
2018-04-08T19:52:03.677Z,95407.19
2018-04-08T19:54:30.010Z,95410.46
2018-04-08T19:56:56.323Z,95408.91
2018-04-08T19:59:22.753Z,95405.53
2018-04-08T20:01:49.062Z,95402.73
2018-04-08T20:04:15.421Z,95408.93
2018-04-08T20:06:41.741Z,95404.80
2018-04-08T20:09:08.092Z,95410.38
2018-04-08T20:11:34.434Z,95405.50
2018-04-08T20:14:00.869Z,95410.23
2018-04-08T20:16:27.224Z,95410.28
2018-04-08T20:18:53.552Z,95411.14
2018-04-08T20:21:19.902Z,95416.54
2018-04-08T20:23:46.251Z,95397.81
2018-04-08T20:26:12.566Z,95406.82
2018-04-08T20:28:38.907Z,95408.06
2018-04-08T20:31:05.372Z,95411.59
2018-04-08T20:33:31.701Z,95408.27
2018-04-08T20:35:58.018Z,95409.55
2018-04-08T20:38:24.457Z,95413.84
2018-04-08T20:40:50.781Z,95411.88
2018-04-08T20:43:17.102Z,95408.94
2018-04-08T20:45:43.435Z,95404.09
2018-04-08T20:48:09.762Z,95407.81
2018-04-08T20:50:36.171Z,95403.90
2018-04-08T20:53:02.515Z,95401.49
2018-04-08T20:55:28.897Z,95402.36
2018-04-08T20:57:55.239Z,95414.14
2018-04-08T21:00:21.602Z,95405.25
2018-04-08T21:02:48.012Z,95398.70
2018-04-08T21:05:14.406Z,95403.35
2018-04-08T21:07:40.753Z,95403.64
2018-04-08T21:10:07.156Z,95401.49
2018-04-08T21:12:33.482Z,95410.87
2018-04-08T21:14:59.804Z,95399.79
2018-04-08T21:17:26.125Z,95407.88
2018-04-08T21:19:52.566Z,95404.94
2018-04-08T21:22:18.947Z,95400.16
2018-04-08T21:24:45.293Z,95402.53
2018-04-08T21:27:11.624Z,95399.80
2018-04-08T21:29:37.949Z,95397.34
2018-04-08T21:32:04.272Z,95400.21
2018-04-08T21:34:30.612Z,95405.14
2018-04-08T21:36:56.934Z,95403.70
2018-04-08T21:39:23.273Z,95407.47
2018-04-08T21:41:49.636Z,95407.89
2018-04-08T21:44:15.991Z,95412.87
2018-04-08T21:46:42.344Z,95408.23
2018-04-08T21:49:08.680Z,95415.20
2018-04-08T21:51:35.038Z,95408.64
2018-04-08T21:54:01.376Z,95415.66
2018-04-08T21:56:27.821Z,95411.67
2018-04-08T21:58:54.178Z,95411.88
2018-04-08T22:01:20.601Z,95409.80
2018-04-08T22:03:46.929Z,95405.62
2018-04-08T22:06:13.292Z,95412.67
2018-04-08T22:08:39.704Z,95411.17
2018-04-08T22:11:06.043Z,95402.12
2018-04-08T22:13:32.501Z,95404.95
2018-04-08T22:15:58.853Z,95397.53
2018-04-08T22:18:25.216Z,95395.95
2018-04-08T22:20:51.655Z,95383.59
2018-04-08T22:23:17.993Z,95390.77
2018-04-08T22:25:44.402Z,95398.48
2018-04-08T22:28:10.755Z,95399.31
2018-04-08T22:30:37.109Z,95397.48
2018-04-08T22:33:03.541Z,95391.72
2018-04-08T22:35:29.917Z,95393.12
2018-04-08T22:37:56.238Z,95390.39
2018-04-08T22:40:22.837Z,95385.08
2018-04-08T22:42:49.262Z,95380.73
2018-04-08T22:45:15.609Z,95379.28
2018-04-08T22:47:41.977Z,95374.75
2018-04-08T22:50:08.378Z,95375.95
2018-04-08T22:52:34.802Z,95372.48
2018-04-08T22:55:01.177Z,95377.13
2018-04-08T22:57:27.558Z,95372.64
2018-04-08T22:59:53.894Z,95368.95
2018-04-08T23:02:20.269Z,95357.58
2018-04-08T23:04:46.627Z,95358.87
2018-04-08T23:07:12.978Z,95356.42
2018-04-08T23:09:39.413Z,95354.97
2018-04-08T23:12:05.798Z,95361.12
2018-04-08T23:14:32.127Z,95356.30
2018-04-08T23:16:58.506Z,95340.31
2018-04-08T23:19:24.830Z,95353.27
2018-04-08T23:21:51.239Z,95363.77
2018-04-08T23:24:17.576Z,95359.83
2018-04-08T23:26:43.925Z,95355.19
2018-04-08T23:29:10.346Z,95349.17
2018-04-08T23:31:36.666Z,95344.08
2018-04-08T23:34:03.045Z,95351.75
2018-04-08T23:36:29.434Z,95344.20
2018-04-08T23:38:55.755Z,95351.45
2018-04-08T23:41:22.122Z,95350.70
2018-04-08T23:43:48.451Z,95351.61
2018-04-08T23:46:14.778Z,95356.18
2018-04-08T23:48:41.178Z,95346.22
2018-04-08T23:51:07.579Z,95350.16
2018-04-08T23:53:33.905Z,95351.53
2018-04-08T23:56:00.277Z,95341.92
2018-04-08T23:58:26.607Z,95339.97
